Weather at Lombillo Airport [CLOSED]

Public forecast

Using degrees Celsius for public forecast. Weather courtesy of forecast.io.

Closest aviation weather report (METAR) to Lombillo Airport

Closest report is Ignacio Agramonte International Airport, 21.3 nm (39.5 km) S. Retrieved 2021/06/22 13:50 UTC (38 minutes ago):

MUCM 221350Z 09006KT 060V130 9000 BKN020 27/24 Q1019

Closest aviation forecast (TAF) to Lombillo Airport

Closest forecast is Ignacio Agramonte International Airport, 21.3 nm (39.5 km) S. Retrieved 2021/06/22 12:03 UTC (2 hours ago):

TAF MUCM 221100Z 2212/2312 VRB03KT 9000 SCT020 TEMPO 2218/2223 VRB05KT 4000 TSRA SCT018CB BKN020